Time;durP1;ratioP1;P1;durP2;ratioP2;P2;SDS_P1;SDS_P2;PMS_P1;PMS_P2;Temp;Humidity;BMP_temperature;BMP_pressure;BME280_temperature;BME280_humidity;BME280_pressure;Samples;Min_cycle;Max_cycle;Signal;HPM_P1;HPM_P2
2023/01/07 00:00:50;;;;;;;18.95;6.03;;;;;;;7.62;59.61;100368.44;4320870;32;20115;-88
2023/01/07 00:03:16;;;;;;;17.10;6.87;;;;;;;7.60;59.60;100368.47;4323025;33;20087;-88
2023/01/07 00:05:42;;;;;;;16.87;7.03;;;;;;;7.74;59.61;100368.28;4325452;33;20227;-86
2023/01/07 00:08:08;;;;;;;18.20;6.65;;;;;;;7.74;59.61;100359.66;4323640;33;20189;-88
2023/01/07 00:10:33;;;;;;;17.85;6.28;;;;;;;7.75;59.60;100356.19;4322502;33;20111;-87
2023/01/07 00:12:59;;;;;;;18.35;6.45;;;;;;;7.57;59.60;100370.19;4328839;33;20121;-88
2023/01/07 00:15:24;;;;;;;18.58;6.35;;;;;;;7.72;59.61;100366.59;4322778;33;20366;-87
2023/01/07 00:17:50;;;;;;;14.68;6.53;;;;;;;7.66;59.60;100375.31;4332571;33;20183;-86
2023/01/07 00:20:15;;;;;;;17.83;7.37;;;;;;;7.50;59.60;100366.81;4337332;33;20778;-87
2023/01/07 00:22:41;;;;;;;15.25;6.68;;;;;;;7.63;59.61;100365.84;4337445;33;20481;-86
2023/01/07 00:25:06;;;;;;;12.18;6.47;;;;;;;7.64;59.61;100374.47;4337008;33;20353;-88
2023/01/07 00:27:32;;;;;;;20.92;7.25;;;;;;;7.85;59.62;100378.56;4337088;33;20119;-88
2023/01/07 00:29:57;;;;;;;17.35;7.35;;;;;;;7.79;59.61;100376.03;4337178;33;20147;-87
2023/01/07 00:32:46;;;;;;;22.20;8.23;;;;;;;7.74;59.61;100380.41;4325179;33;20114;-89
2023/01/07 00:35:21;;;;;;;18.65;8.07;;;;;;;7.91;59.61;100383.69;4336970;33;20731;-89
2023/01/07 00:37:49;;;;;;;18.48;7.93;;;;;;;7.84;59.62;100379.44;4339306;33;20126;-89
2023/01/07 00:40:15;;;;;;;19.65;7.25;;;;;;;7.91;59.61;100387.13;4324966;33;20087;-87
2023/01/07 00:45:24;;;;;;;19.55;8.48;;;;;;;8.04;59.62;100377.47;4330453;33;20147;-89
2023/01/07 00:47:53;;;;;;;19.02;8.18;;;;;;;8.14;59.63;100375.63;4337411;33;20119;-89
2023/01/07 00:50:20;;;;;;;22.20;8.65;;;;;;;8.15;59.63;100378.22;4337864;33;20143;-88
2023/01/07 00:52:45;;;;;;;16.58;8.00;;;;;;;8.02;59.63;100376.63;4322841;33;20531;-89
2023/01/07 00:55:13;;;;;;;19.80;8.18;;;;;;;8.27;59.64;100377.19;4317719;33;20143;-89
2023/01/07 00:57:39;;;;;;;20.27;7.87;;;;;;;8.36;59.64;100373.66;4337909;33;20154;-89
2023/01/07 01:00:05;;;;;;;17.10;8.18;;;;;;;8.11;59.63;100381.72;4335284;33;20548;-88
2023/01/07 01:02:31;;;;;;;23.15;8.50;;;;;;;8.36;59.64;100376.25;4337378;33;20103;-89
2023/01/07 01:04:56;;;;;;;26.52;9.45;;;;;;;8.40;59.65;100380.53;4337019;33;20134;-88
2023/01/07 01:07:22;;;;;;;14.80;7.57;;;;;;;8.41;59.65;100384.84;4334518;33;20145;-87
2023/01/07 01:09:47;;;;;;;16.77;8.20;;;;;;;8.46;59.65;100376.09;4324712;33;20174;-89
2023/01/07 01:12:13;;;;;;;17.67;8.27;;;;;;;8.55;59.65;100372.53;4349361;32;20362;-89
2023/01/07 01:14:38;;;;;;;19.55;8.38;;;;;;;8.45;59.65;100376.13;4333948;33;20108;-89
2023/01/07 01:17:04;;;;;;;20.92;8.50;;;;;;;8.47;59.65;100371.78;4333089;33;20536;-88
2023/01/07 01:19:29;;;;;;;16.20;8.57;;;;;;;8.37;59.65;100376.25;4325395;33;20111;-88
2023/01/07 01:21:55;;;;;;;22.00;8.65;;;;;;;8.56;59.65;100369.06;4337116;33;20137;-89
2023/01/07 01:24:20;;;;;;;20.55;8.23;;;;;;;8.64;59.66;100376.75;4334372;33;20163;-88
2023/01/07 01:26:46;;;;;;;18.10;8.32;;;;;;;8.52;59.66;100377.78;4336950;33;20111;-88
2023/01/07 01:29:11;;;;;;;16.73;8.25;;;;;;;8.71;59.66;100375.75;4334494;33;20092;-87
2023/01/07 01:31:36;;;;;;;18.87;8.63;;;;;;;8.58;59.66;100369.91;4337259;33;20095;-88
2023/01/07 01:34:02;;;;;;;19.05;8.23;;;;;;;8.71;59.66;100371.44;4334303;33;20100;-88
2023/01/07 01:36:30;;;;;;;17.00;8.27;;;;;;;8.62;59.66;100368.97;4324571;33;20182;-88
2023/01/07 01:38:56;;;;;;;14.15;8.15;;;;;;;8.63;59.66;100375.87;4331116;33;20103;-88
2023/01/07 01:41:21;;;;;;;17.37;8.75;;;;;;;8.60;59.66;100358.63;4319060;33;20118;-89
2023/01/07 01:43:47;;;;;;;14.75;7.97;;;;;;;8.61;59.66;100364.66;4334478;33;20100;-88
2023/01/07 01:46:38;;;;;;;20.02;8.55;;;;;;;8.44;59.64;100361.44;4335512;33;20108;-88
2023/01/07 01:49:04;;;;;;;22.80;8.35;;;;;;;8.36;59.64;100365.87;4328703;33;20108;-88
2023/01/07 01:51:33;;;;;;;15.18;7.43;;;;;;;8.23;59.64;100365.13;4349522;32;20147;-89
2023/01/07 01:54:00;;;;;;;17.23;8.18;;;;;;;8.26;59.64;100360.75;4327793;33;20096;-88
2023/01/07 01:56:33;;;;;;;18.20;8.52;;;;;;;8.18;59.63;100357.41;4315011;33;20119;-89
2023/01/07 01:59:03;;;;;;;22.92;8.90;;;;;;;8.28;59.64;100352.97;4336979;33;20492;-88
2023/01/07 02:01:29;;;;;;;15.93;8.13;;;;;;;8.24;59.64;100352.16;4334852;33;20457;-88
2023/01/07 02:03:56;;;;;;;21.73;8.60;;;;;;;8.27;59.64;100349.50;4337001;33;20108;-88
2023/01/07 02:06:26;;;;;;;22.20;8.18;;;;;;;8.35;59.64;100344.28;4337105;33;20142;-88
2023/01/07 02:08:51;;;;;;;17.10;8.05;;;;;;;8.26;59.64;100340.00;4324544;32;20171;-89
2023/01/07 02:11:38;;;;;;;15.13;7.32;;;;;;;8.30;59.64;100341.72;4337129;33;20086;-88
2023/01/07 02:14:27;;;;;;;17.95;7.87;;;;;;;8.31;59.64;100347.75;4336763;33;20092;-88
2023/01/07 02:17:15;;;;;;;16.48;7.53;;;;;;;8.28;59.64;100345.19;4347185;33;20177;-87
2023/01/07 02:19:58;;;;;;;22.37;7.57;;;;;;;8.20;59.63;100337.50;4331919;33;20111;-89
2023/01/07 02:22:23;;;;;;;19.10;7.78;;;;;;;8.24;59.64;100335.72;4340413;32;20163;-88
2023/01/07 02:24:58;;;;;;;15.48;8.38;;;;;;;8.27;59.64;100333.09;4347715;33;20110;-87
2023/01/07 02:27:37;;;;;;;17.50;7.43;;;;;;;8.14;59.64;100332.41;4334165;33;20100;-86
2023/01/07 02:30:14;;;;;;;17.53;8.17;;;;;;;8.14;59.64;100335.00;4335977;33;20169;-88
2023/01/07 02:33:01;;;;;;;15.50;8.18;;;;;;;8.07;59.64;100330.78;4349117;32;20847;-89
2023/01/07 02:35:52;;;;;;;18.50;8.15;;;;;;;8.11;59.63;100336.78;4349209;33;20116;-89
2023/01/07 02:38:27;;;;;;;16.55;7.70;;;;;;;8.21;59.63;100325.41;4349280;32;20730;-88
2023/01/07 02:41:24;;;;;;;19.00;8.85;;;;;;;8.15;59.63;100331.53;4342801;33;20100;-89
2023/01/07 02:43:56;;;;;;;18.52;7.82;;;;;;;8.13;59.63;100338.47;4317428;33;20105;-89
2023/01/07 02:46:42;;;;;;;17.12;8.48;;;;;;;8.24;59.64;100336.59;4349294;32;20465;-89
2023/01/07 02:49:08;;;;;;;20.15;8.68;;;;;;;8.23;59.64;100334.88;4349136;33;20100;-89
2023/01/07 02:51:34;;;;;;;23.87;9.18;;;;;;;8.18;59.63;100330.62;4325373;33;20130;-89
2023/01/07 02:54:00;;;;;;;24.12;9.80;;;;;;;8.04;59.62;100333.38;4327436;32;20212;-89
2023/01/07 02:56:43;;;;;;;17.33;9.07;;;;;;;8.07;59.63;100325.59;4327468;33;20136;-89
2023/01/07 02:59:22;;;;;;;20.30;9.38;;;;;;;7.80;59.61;100336.25;4339530;33;20157;-90
2023/01/07 03:01:52;;;;;;;22.37;10.05;;;;;;;7.83;59.61;100336.25;4337146;33;20141;-89
2023/01/07 03:05:05;;;;;;;22.98;9.75;;;;;;;7.57;59.60;100337.41;4348779;32;20742;-88
2023/01/07 03:07:46;;;;;;;23.52;10.15;;;;;;;7.76;59.62;100330.28;4289949;33;20136;-89
2023/01/07 03:10:35;;;;;;;22.50;10.02;;;;;;;7.33;59.59;100327.25;4290595;33;20500;-89
2023/01/07 03:13:06;;;;;;;26.62;11.07;;;;;;;7.37;59.59;100331.56;4333116;33;20112;-89
2023/01/07 03:15:44;;;;;;;23.98;10.73;;;;;;;7.25;59.59;100324.75;4327359;33;20060;-89
2023/01/07 03:18:13;;;;;;;23.15;10.95;;;;;;;7.27;59.58;100322.16;4334806;33;20138;-88
2023/01/07 03:20:39;;;;;;;25.97;10.73;;;;;;;7.23;59.58;100321.31;4334406;33;20167;-88
2023/01/07 03:23:05;;;;;;;22.80;11.02;;;;;;;7.17;59.57;100321.38;4337077;33;20150;-89
2023/01/07 03:25:31;;;;;;;26.98;10.98;;;;;;;7.25;59.59;100321.31;4330869;33;20158;-89
2023/01/07 03:27:56;;;;;;;26.42;10.85;;;;;;;7.04;59.57;100323.22;4321152;33;20117;-88
2023/01/07 03:30:21;;;;;;;31.50;11.80;;;;;;;6.95;59.57;100320.72;4336947;33;20232;-89
2023/01/07 03:33:07;;;;;;;28.95;12.25;;;;;;;6.89;59.56;100319.91;4327027;33;20170;-91
2023/01/07 03:35:33;;;;;;;22.85;11.27;;;;;;;6.96;59.57;100322.44;4335937;33;20091;-90
2023/01/07 03:37:59;;;;;;;28.17;12.35;;;;;;;6.88;59.56;100318.19;4322154;33;20126;-89
2023/01/07 03:40:24;;;;;;;23.48;11.55;;;;;;;6.76;59.55;100321.72;4313006;33;20131;-90
2023/01/07 03:42:50;;;;;;;27.10;12.82;;;;;;;6.81;59.56;100319.94;4322394;33;20128;-90
2023/01/07 03:45:17;;;;;;;27.10;13.52;;;;;;;6.65;59.54;100313.19;4324163;33;20091;-88
2023/01/07 03:47:47;;;;;;;34.17;13.88;;;;;;;6.61;59.55;100307.16;4319413;33;20093;-88
2023/01/07 03:50:13;;;;;;;27.70;13.27;;;;;;;6.56;59.54;100311.50;4300750;33;20162;-89
2023/01/07 03:52:39;;;;;;;28.52;12.98;;;;;;;6.55;59.54;100311.50;4309052;33;20134;-88
2023/01/07 03:55:05;;;;;;;25.30;12.02;;;;;;;6.61;59.55;100319.22;4320590;33;20162;-88
2023/01/07 03:57:31;;;;;;;31.62;12.80;;;;;;;6.69;59.55;100312.28;4323922;33;20418;-89
2023/01/07 03:59:57;;;;;;;29.73;13.73;;;;;;;6.77;59.56;100313.94;4321839;33;20178;-88
2023/01/07 04:02:22;;;;;;;26.48;12.77;;;;;;;6.77;59.55;100313.09;4333594;33;20123;-89
2023/01/07 04:04:48;;;;;;;30.00;13.90;;;;;;;6.81;59.56;100312.19;4315327;33;20136;-89
2023/01/07 04:07:13;;;;;;;29.35;13.23;;;;;;;6.70;59.55;100311.41;4306311;33;20130;-88
2023/01/07 04:09:39;;;;;;;27.02;12.45;;;;;;;6.71;59.55;100321.75;4321565;33;20116;-89
2023/01/07 04:12:04;;;;;;;23.25;13.02;;;;;;;6.69;59.55;100314.87;4319288;33;20144;-88
2023/01/07 04:14:30;;;;;;;26.62;12.55;;;;;;;6.71;59.55;100324.34;4302112;33;20099;-87
2023/01/07 04:16:55;;;;;;;31.90;13.43;;;;;;;6.66;59.55;100312.31;4321197;33;20151;-88
2023/01/07 04:19:21;;;;;;;24.87;12.00;;;;;;;6.68;59.55;100318.34;4307192;33;20168;-89
2023/01/07 04:21:46;;;;;;;24.67;11.70;;;;;;;6.62;59.54;100319.22;4309468;33;20129;-90
2023/01/07 04:24:14;;;;;;;25.50;12.07;;;;;;;6.62;59.54;100315.78;4321718;33;20099;-89
2023/01/07 04:26:40;;;;;;;25.98;12.85;;;;;;;6.54;59.54;100307.22;4318562;33;20099;-90
2023/01/07 04:29:06;;;;;;;25.23;11.93;;;;;;;6.36;59.54;100310.75;4314625;33;20176;-90
2023/01/07 04:31:31;;;;;;;22.60;11.10;;;;;;;6.41;59.53;100312.47;4321200;33;20212;-88
2023/01/07 04:33:56;;;;;;;29.42;11.32;;;;;;;6.37;59.53;100312.47;4321272;33;20095;-88
2023/01/07 04:36:22;;;;;;;23.98;11.57;;;;;;;6.28;59.52;100322.88;4321329;33;20139;-88
2023/01/07 04:38:47;;;;;;;21.60;11.95;;;;;;;6.43;59.54;100321.09;4311843;33;20108;-88
2023/01/07 04:41:13;;;;;;;22.83;11.12;;;;;;;6.48;59.54;100313.28;4314139;33;20485;-88
2023/01/07 04:43:38;;;;;;;22.85;11.48;;;;;;;6.42;59.54;100316.78;4299982;33;20095;-89
2023/01/07 04:46:04;;;;;;;22.23;10.55;;;;;;;6.34;59.53;100315.94;4321264;33;20139;-90
2023/01/07 04:48:29;;;;;;;24.23;10.32;;;;;;;6.46;59.54;100320.22;4320998;33;20175;-90
2023/01/07 04:50:55;;;;;;;22.10;10.60;;;;;;;6.53;59.54;100318.44;4320257;33;20130;-91
2023/01/07 04:53:20;;;;;;;22.58;10.23;;;;;;;6.58;59.55;100316.66;4314719;33;20193;-90
2023/01/07 04:55:46;;;;;;;21.10;10.63;;;;;;;6.56;59.54;100314.09;4315602;33;20155;-88
2023/01/07 04:58:11;;;;;;;23.87;11.20;;;;;;;6.59;59.55;100315.78;4321074;33;20120;-89
2023/01/07 05:00:37;;;;;;;19.77;10.18;;;;;;;6.54;59.54;100320.16;4321145;33;20100;-89
2023/01/07 05:03:02;;;;;;;23.10;11.35;;;;;;;6.45;59.54;100319.34;4327204;33;20353;-89
2023/01/07 05:05:28;;;;;;;23.58;11.25;;;;;;;6.33;59.53;100328.87;4317815;33;20479;-88
2023/01/07 05:07:53;;;;;;;24.75;11.38;;;;;;;6.51;59.54;100325.34;4322702;33;20453;-90
2023/01/07 05:10:19;;;;;;;24.15;10.82;;;;;;;6.57;59.54;100331.31;4313307;33;20088;-90
2023/01/07 05:12:44;;;;;;;21.15;10.75;;;;;;;6.56;59.54;100324.44;4323175;33;20158;-90
2023/01/07 05:15:10;;;;;;;25.60;11.60;;;;;;;6.56;59.54;100327.03;4321111;33;20087;-90
2023/01/07 05:17:35;;;;;;;22.70;10.80;;;;;;;6.60;59.55;100325.28;4305900;33;20131;-90
2023/01/07 05:20:01;;;;;;;23.25;9.98;;;;;;;6.56;59.54;100324.44;4322734;33;20144;-89
2023/01/07 05:22:26;;;;;;;24.92;10.77;;;;;;;6.59;59.55;100334.75;4316143;33;20136;-89
2023/01/07 05:24:51;;;;;;;18.87;9.85;;;;;;;6.59;59.55;100329.59;4305032;33;20103;-87
2023/01/07 05:27:17;;;;;;;19.00;10.10;;;;;;;6.64;59.54;100329.59;4300667;33;20382;-89
2023/01/07 05:29:42;;;;;;;24.10;10.52;;;;;;;6.65;59.54;100331.28;4310901;33;20103;-88
2023/01/07 05:32:08;;;;;;;20.75;10.90;;;;;;;6.66;59.55;100333.00;4322617;33;20174;-88
2023/01/07 05:34:33;;;;;;;31.05;13.82;;;;;;;6.67;59.56;100334.72;4310692;33;20096;-91
2023/01/07 05:36:59;;;;;;;26.92;12.88;;;;;;;6.66;59.55;100333.00;4315498;33;20444;-89
2023/01/07 05:39:25;;;;;;;22.05;11.60;;;;;;;6.62;59.54;100339.03;4323015;33;20115;-88
2023/01/07 05:41:50;;;;;;;21.12;12.10;;;;;;;6.53;59.54;100337.38;4310688;33;20117;-90
2023/01/07 05:44:16;;;;;;;24.60;12.13;;;;;;;6.57;59.54;100341.66;4310708;33;20119;-90
2023/01/07 05:46:41;;;;;;;22.95;11.15;;;;;;;6.58;59.55;100345.97;4322559;33;20179;-90
2023/01/07 05:49:07;;;;;;;21.62;11.05;;;;;;;6.58;59.55;100345.13;4314196;33;20104;-91
2023/01/07 05:51:32;;;;;;;20.70;10.95;;;;;;;6.68;59.55;100342.47;4321864;33;20797;-90
2023/01/07 05:53:57;;;;;;;23.17;11.25;;;;;;;6.66;59.55;100339.03;4310719;33;20113;-90
2023/01/07 05:56:23;;;;;;;23.25;10.68;;;;;;;6.64;59.54;100337.34;4317933;33;20200;-89
2023/01/07 05:58:48;;;;;;;21.75;11.20;;;;;;;6.43;59.54;100346.09;4315264;33;20127;-90
2023/01/07 06:01:14;;;;;;;21.67;11.12;;;;;;;6.23;59.53;100353.94;4322627;33;20107;-90
2023/01/07 06:03:39;;;;;;;18.67;10.40;;;;;;;6.20;59.53;100348.78;4322809;33;20103;-91
2023/01/07 06:06:07;;;;;;;19.92;10.48;;;;;;;6.17;59.52;100348.81;4319802;33;20113;-89
2023/01/07 06:08:34;;;;;;;25.08;11.95;;;;;;;6.24;59.52;100339.28;4320444;33;20124;-89
2023/01/07 06:10:59;;;;;;;24.63;11.27;;;;;;;6.09;59.52;100345.37;4308968;33;20100;-89
2023/01/07 06:13:25;;;;;;;27.37;11.98;;;;;;;6.13;59.51;100349.66;4313823;33;20143;-89
2023/01/07 06:15:50;;;;;;;23.48;11.15;;;;;;;6.18;59.52;100342.78;4313131;33;20446;-89
2023/01/07 06:18:15;;;;;;;22.50;10.63;;;;;;;6.15;59.52;100343.66;4313899;33;20279;-89
2023/01/07 06:20:41;;;;;;;22.77;12.05;;;;;;;6.40;59.53;100343.53;4316731;33;20121;-89
2023/01/07 06:23:06;;;;;;;23.20;12.40;;;;;;;6.18;59.52;100334.16;4309200;33;20096;-89
2023/01/07 06:25:32;;;;;;;26.23;11.35;;;;;;;6.05;59.51;100339.38;4322824;33;20489;-89
2023/01/07 06:27:57;;;;;;;26.80;11.80;;;;;;;6.28;59.53;100344.44;4312735;33;20127;-89
2023/01/07 06:30:23;;;;;;;16.67;9.60;;;;;;;6.26;59.52;100335.81;4311965;33;20096;-90
2023/01/07 06:32:48;;;;;;;20.33;9.68;;;;;;;6.29;59.53;100334.94;4320680;33;20149;-88
2023/01/07 06:35:14;;;;;;;19.08;9.48;;;;;;;6.21;59.53;100335.00;4307992;33;20167;-88
2023/01/07 06:37:39;;;;;;;25.12;13.52;;;;;;;6.12;59.51;100333.28;4315978;33;20139;-88
2023/01/07 06:40:05;;;;;;;21.80;10.43;;;;;;;6.35;59.54;100329.72;4309574;33;20099;-88
2023/01/07 06:42:31;;;;;;;20.30;10.32;;;;;;;6.28;59.53;100323.75;4314690;33;20114;-89
2023/01/07 06:44:56;;;;;;;20.17;9.23;;;;;;;6.20;59.53;100317.78;4318191;33;20112;-89
2023/01/07 06:47:22;;;;;;;25.08;9.93;;;;;;;6.03;59.51;100324.75;4334481;33;20147;-89
2023/01/07 06:49:47;;;;;;;20.00;11.00;;;;;;;6.20;59.53;100325.53;4322400;33;20166;-91
2023/01/07 06:52:13;;;;;;;21.58;10.82;;;;;;;6.37;59.53;100322.81;4322361;33;20137;-90
2023/01/07 06:54:38;;;;;;;33.53;17.55;;;;;;;6.21;59.53;100329.81;4310162;33;20169;-91
2023/01/07 06:57:03;;;;;;;26.85;13.57;;;;;;;6.56;59.54;100336.50;4320047;33;20156;-91
2023/01/07 06:59:29;;;;;;;26.15;13.55;;;;;;;6.48;59.54;100341.75;4319772;33;20099;-90
2023/01/07 07:01:54;;;;;;;21.90;11.18;;;;;;;6.29;59.54;100351.31;4316072;33;20114;-90
2023/01/07 07:04:20;;;;;;;19.55;9.95;;;;;;;6.50;59.53;100346.91;4310544;33;20111;-90
2023/01/07 07:06:45;;;;;;;20.90;10.02;;;;;;;6.52;59.54;100346.03;4322282;33;20134;-90
2023/01/07 07:09:11;;;;;;;20.02;10.13;;;;;;;6.25;59.52;100352.19;4334522;33;20115;-90
2023/01/07 07:11:36;;;;;;;21.75;10.77;;;;;;;6.18;59.52;100345.34;4322069;33;20142;-90
2023/01/07 07:14:03;;;;;;;23.75;10.13;;;;;;;6.08;59.52;100352.28;4322095;33;20103;-89
2023/01/07 07:16:28;;;;;;;19.00;10.18;;;;;;;6.30;59.53;100354.75;4321063;33;20611;-85
2023/01/07 07:18:54;;;;;;;19.62;10.15;;;;;;;6.41;59.54;100358.16;4333381;33;20130;-87
2023/01/07 07:21:19;;;;;;;23.75;10.07;;;;;;;6.64;59.54;100360.62;4321656;33;20150;-88
2023/01/07 07:23:44;;;;;;;18.48;8.98;;;;;;;6.52;59.54;100363.25;4321480;33;20216;-86
2023/01/07 07:26:10;;;;;;;18.48;9.80;;;;;;;6.62;59.54;100364.91;4321651;33;20119;-88
2023/01/07 07:28:36;;;;;;;22.02;9.70;;;;;;;6.67;59.55;100365.78;4309231;33;20151;-88
2023/01/07 07:31:01;;;;;;;17.87;9.35;;;;;;;6.97;59.57;100368.12;4314134;33;20143;-86
2023/01/07 07:33:27;;;;;;;18.35;8.57;;;;;;;6.94;59.56;100364.72;4320935;33;20393;-88
2023/01/07 07:35:53;;;;;;;18.37;9.18;;;;;;;6.92;59.56;100372.50;4314811;33;20135;-88
2023/01/07 07:38:19;;;;;;;21.48;9.27;;;;;;;6.91;59.56;100367.34;4306114;33;20053;-88
2023/01/07 07:40:45;;;;;;;17.33;9.43;;;;;;;6.80;59.55;100363.94;4316622;33;20104;-87
2023/01/07 07:43:11;;;;;;;22.48;10.27;;;;;;;6.74;59.56;100367.44;4321027;33;20170;-87
2023/01/07 07:45:36;;;;;;;17.35;8.85;;;;;;;6.90;59.56;100366.47;4306854;33;20441;-87
2023/01/07 07:48:04;;;;;;;18.48;9.73;;;;;;;7.13;59.57;100371.47;4318799;33;20400;-88
2023/01/07 07:50:30;;;;;;;16.98;8.55;;;;;;;7.31;59.58;100366.13;4321306;33;20096;-87
2023/01/07 07:52:55;;;;;;;19.50;9.07;;;;;;;7.20;59.58;100374.88;4311877;33;20176;-87
2023/01/07 07:55:20;;;;;;;19.73;10.82;;;;;;;7.33;59.59;100366.09;4320947;33;20208;-88
2023/01/07 07:57:46;;;;;;;22.77;11.40;;;;;;;7.37;59.59;100363.50;4307986;33;20155;-88
2023/01/07 08:00:12;;;;;;;29.98;14.93;;;;;;;7.54;59.59;100371.09;4302560;33;20144;-88
2023/01/07 08:02:37;;;;;;;24.10;11.85;;;;;;;7.55;59.60;100372.81;4310844;33;20170;-87
2023/01/07 08:05:03;;;;;;;19.12;9.68;;;;;;;7.96;59.62;100366.34;4332664;33;20107;-87
2023/01/07 08:07:28;;;;;;;18.77;9.05;;;;;;;7.97;59.62;100358.53;4309318;33;20161;-86
2023/01/07 08:09:54;;;;;;;17.12;8.85;;;;;;;8.06;59.62;100367.97;4311528;33;20107;-88
2023/01/07 08:12:22;;;;;;;18.27;9.85;;;;;;;8.38;59.65;100367.56;4317909;33;20137;-84
2023/01/07 08:14:47;;;;;;;20.12;9.52;;;;;;;8.33;59.64;100364.16;4307651;33;20124;-88
2023/01/07 08:17:13;;;;;;;21.05;9.85;;;;;;;8.32;59.64;100367.62;4319491;33;20241;-86
2023/01/07 08:19:38;;;;;;;17.50;9.57;;;;;;;8.47;59.65;100364.00;4318228;33;20187;-88
2023/01/07 08:22:03;;;;;;;20.50;9.68;;;;;;;8.41;59.64;100359.75;4308939;33;20138;-87
2023/01/07 08:24:29;;;;;;;17.77;9.90;;;;;;;8.60;59.66;100356.03;4319479;33;20484;-87
2023/01/07 08:26:55;;;;;;;19.45;11.02;;;;;;;8.44;59.64;100356.25;4311385;33;20130;-88
2023/01/07 08:29:22;;;;;;;20.60;9.82;;;;;;;8.50;59.65;100346.63;4311057;33;20104;-87
2023/01/07 08:31:47;;;;;;;18.27;9.77;;;;;;;8.67;59.66;100349.00;4318249;33;20138;-88
2023/01/07 08:34:13;;;;;;;18.58;9.23;;;;;;;8.68;59.66;100350.72;4314327;33;20377;-88
2023/01/07 08:36:38;;;;;;;18.40;10.13;;;;;;;9.17;59.69;100344.75;4320426;33;20177;-88
2023/01/07 08:39:03;;;;;;;17.25;8.43;;;;;;;9.04;59.68;100345.84;4319109;33;20154;-88
2023/01/07 08:41:29;;;;;;;19.80;9.57;;;;;;;9.18;59.68;100341.28;4321695;33;20119;-88
2023/01/07 08:43:55;;;;;;;18.20;10.00;;;;;;;9.21;59.69;100339.47;4317430;33;20135;-87
2023/01/07 08:46:20;;;;;;;17.27;9.50;;;;;;;9.51;59.70;100335.50;4308643;33;20199;-88
2023/01/07 08:48:45;;;;;;;18.08;9.98;;;;;;;9.57;59.71;100331.94;4322108;33;20176;-88
2023/01/07 08:51:11;;;;;;;17.65;10.05;;;;;;;9.84;59.72;100333.13;4322309;33;20151;-87
2023/01/07 08:53:36;;;;;;;16.73;9.32;;;;;;;9.81;59.73;100335.81;4322489;33;20124;-88
2023/01/07 08:56:02;;;;;;;17.42;9.38;;;;;;;9.96;59.73;100324.25;4312639;33;20114;-86
2023/01/07 08:58:27;;;;;;;15.93;8.38;;;;;;;10.11;59.74;100316.97;4322284;33;20092;-87
2023/01/07 09:00:53;;;;;;;18.37;8.70;;;;;;;10.32;59.76;100314.84;4309313;33;20112;-88
2023/01/07 09:03:18;;;;;;;15.52;8.05;;;;;;;10.47;59.75;100316.25;4297941;33;20226;-87
2023/01/07 09:05:47;;;;;;;11.45;7.07;;;;;;;10.58;59.76;100320.31;4307636;33;20188;-86
2023/01/07 09:08:12;;;;;;;16.27;8.00;;;;;;;10.57;59.76;100318.59;4307223;33;20205;-85
2023/01/07 09:10:38;;;;;;;13.50;7.30;;;;;;;10.80;59.77;100319.81;4314483;33;20119;-88
2023/01/07 09:13:03;;;;;;;12.25;8.07;;;;;;;10.76;59.77;100317.28;4311847;33;20393;-84
2023/01/07 09:15:28;;;;;;;14.65;7.07;;;;;;;11.10;59.79;100319.06;4322687;33;20145;-84
2023/01/07 09:17:54;;;;;;;15.73;6.95;;;;;;;10.96;59.78;100318.56;4330666;33;20099;-85
2023/01/07 09:20:19;;;;;;;14.70;6.75;;;;;;;11.19;59.80;100308.41;4319384;33;20172;-85
2023/01/07 09:22:45;;;;;;;11.90;7.28;;;;;;;11.26;59.80;100304.75;4320085;33;20389;-85
2023/01/07 09:25:10;;;;;;;13.23;6.90;;;;;;;11.30;59.79;100311.59;4324019;33;20199;-86
2023/01/07 09:27:36;;;;;;;13.20;7.05;;;;;;;11.45;59.81;100306.88;4309492;33;20123;-88
2023/01/07 09:30:03;;;;;;;11.02;6.37;;;;;;;11.64;59.82;100308.94;4321328;33;20134;-88
2023/01/07 09:32:28;;;;;;;12.82;7.03;;;;;;;11.75;59.82;100315.63;4321104;33;20107;-88
2023/01/07 09:34:54;;;;;;;11.82;6.80;;;;;;;11.93;59.84;100304.69;4311969;33;20414;-85
2023/01/07 09:37:20;;;;;;;16.42;7.65;;;;;;;11.90;59.83;100296.97;4325752;33;20110;-89
2023/01/07 09:39:45;;;;;;;11.27;6.55;;;;;;;12.06;59.85;100298.22;4320983;33;20203;-90
2023/01/07 09:42:42;;;;;;;15.13;7.15;;;;;;;12.13;59.84;100294.53;4320145;33;20146;-90
2023/01/07 09:45:20;;;;;;;15.55;7.03;;;;;;;12.12;59.84;100290.22;4317043;33;20164;-87
2023/01/07 09:47:47;;;;;;;17.33;7.60;;;;;;;12.21;59.84;100291.69;4314198;33;20088;-90
2023/01/07 09:50:21;;;;;;;11.75;6.82;;;;;;;11.91;59.84;100286.47;4305330;33;20233;-87
2023/01/07 09:52:49;;;;;;;11.70;7.32;;;;;;;12.28;59.86;100275.78;4320967;33;20103;-89
2023/01/07 09:55:34;;;;;;;14.75;7.78;;;;;;;12.41;59.86;100270.22;4322085;33;20055;-89
2023/01/07 09:58:00;;;;;;;11.25;6.95;;;;;;;12.40;59.86;100271.09;4334829;33;20118;-89
2023/01/07 10:00:25;;;;;;;11.45;6.62;;;;;;;12.48;59.86;100269.09;4322702;33;20124;-89
2023/01/07 10:03:00;;;;;;;12.45;6.55;;;;;;;12.50;59.88;100268.16;4312711;33;20112;-89
2023/01/07 10:05:41;;;;;;;13.00;8.25;;;;;;;12.58;59.86;100265.31;4334776;33;20212;-89
2023/01/07 10:08:44;;;;;;;14.55;6.90;;;;;;;12.47;59.86;100260.41;4334218;33;20171;-89
2023/01/07 10:11:22;;;;;;;12.57;7.15;;;;;;;12.91;59.89;100252.91;4324857;33;20100;-89
2023/01/07 10:13:56;;;;;;;14.63;7.95;;;;;;;12.82;59.89;100248.84;4322068;33;20112;-89
2023/01/07 10:16:39;;;;;;;15.70;7.60;;;;;;;13.03;59.89;100249.03;4319791;33;20107;-89
2023/01/07 10:19:26;;;;;;;13.02;7.47;;;;;;;12.89;59.89;100239.88;4319164;33;20114;-90
2023/01/07 10:22:16;;;;;;;17.73;8.05;;;;;;;12.97;59.88;100244.00;4320759;33;20493;-89
2023/01/07 10:24:44;;;;;;;14.98;8.10;;;;;;;12.99;59.89;100239.56;4309437;33;20138;-87
2023/01/07 10:27:11;;;;;;;13.65;7.28;;;;;;;13.04;59.90;100246.38;4320738;33;20092;-87
2023/01/07 10:29:40;;;;;;;12.77;7.55;;;;;;;13.29;59.91;100232.47;4319925;33;20091;-89
2023/01/07 10:32:18;;;;;;;13.62;8.38;;;;;;;13.41;59.91;100232.03;4299412;33;20184;-89
2023/01/07 10:34:52;;;;;;;14.25;8.23;;;;;;;13.27;59.91;100222.06;4307614;33;20107;-88
2023/01/07 10:38:06;;;;;;;;;;;;;;;;;;;;;
2023/01/07 10:41:08;;;;;;;;;;;;;;;;;;;;;
2023/01/07 10:44:04;;;;;;;15.15;8.07;;;;;;;13.64;59.94;100232.03;4280373;33;36306;-92
2023/01/07 10:46:45;;;;;;;13.20;7.87;;;;;;;13.58;59.93;100218.34;4321333;33;20270;-89
2023/01/07 10:49:35;;;;;;;12.23;6.75;;;;;;;13.67;59.93;100218.84;4333764;33;20119;-86
2023/01/07 10:52:32;;;;;;;11.75;6.78;;;;;;;13.96;59.95;100215.16;4324807;33;20123;-88
2023/01/07 10:55:18;;;;;;;15.23;8.23;;;;;;;13.91;59.95;100214.44;4324112;33;20112;-86
2023/01/07 10:57:44;;;;;;;14.73;8.38;;;;;;;13.81;59.94;100208.72;4332893;33;20100;-88
2023/01/07 11:00:13;;;;;;;13.65;7.40;;;;;;;13.95;59.94;100199.47;4301103;33;20261;-88
2023/01/07 11:02:41;;;;;;;12.30;7.10;;;;;;;14.30;59.96;100203.34;4305648;33;20204;-89
2023/01/07 11:05:09;;;;;;;30.55;25.02;;;;;;;14.36;59.96;100198.72;4303505;33;20139;-89
2023/01/07 11:07:47;;;;;;;12.15;7.37;;;;;;;14.41;59.97;100196.75;4309573;33;20158;-89
2023/01/07 11:10:24;;;;;;;12.60;7.93;;;;;;;14.20;59.96;100191.53;4320816;33;20115;-89
2023/01/07 11:13:02;;;;;;;16.62;8.15;;;;;;;14.27;59.96;100185.16;4299443;33;20123;-89
2023/01/07 11:15:32;;;;;;;15.20;7.90;;;;;;;14.30;59.96;100188.50;4310353;33;20108;-91
2023/01/07 11:18:00;;;;;;;15.60;7.25;;;;;;;14.53;59.98;100187.59;4333993;33;20134;-89
2023/01/07 11:20:48;;;;;;;13.70;7.47;;;;;;;14.39;59.97;100182.00;4319489;33;20096;-90
2023/01/07 11:23:31;;;;;;;19.55;9.88;;;;;;;14.48;59.97;100180.84;4321946;33;20084;-89
2023/01/07 11:26:25;;;;;;;21.83;12.00;;;;;;;14.64;59.99;100177.50;4309748;33;20072;-88
2023/01/07 11:28:55;;;;;;;23.30;12.40;;;;;;;14.88;59.99;100170.38;4311493;33;20163;-89
2023/01/07 11:31:43;;;;;;;;;;;;;;;14.65;59.98;100173.09;4307524;33;20108;-89
2023/01/07 11:34:24;;;;;;;27.30;14.20;;;;;;;14.73;59.99;100171.88;4327806;33;20242;-88
2023/01/07 11:36:49;;;;;;;28.38;15.32;;;;;;;14.85;59.99;100164.41;4333843;33;20115;-91